This is the latest recevied weather packets stored in our database for station/object DD5ASA. If no packets are shown the sender has not sent any weather packets the latest 10 day(s).
| Time | Temp. | Humidity | Pressure | Rain* | Wind** | Luminosity | Snow |
|---|---|---|---|---|---|---|---|
| 1777492838 | 6.11° C | 12% | 1031.6 hPa | 0 mm | - | - | - |
| 1777485647 | 9.44° C | 8% | 1030.6 hPa | 0 mm | - | - | - |
| 1777483526 | 11.11° C | 7% | 1029.6 hPa | 0 mm | - | - | - |
| 1777482920 | 11.67° C | 7% | 1029.6 hPa | 0 mm | - | - | - |
| 1777481419 | 12.22° C | 7% | 1029.6 hPa | 0 mm | - | - | - |
| 1777475427 | 14.44° C | 6% | 1029.6 hPa | 0 mm | - | - | - |
| 1777473942 | 15° C | 6% | 1028.5 hPa | 0 mm | - | - | - |
| 1777472719 | 15° C | 6% | 1028.5 hPa | 0 mm | - | - | - |
| 1777470921 | 15° C | 6% | 1029.6 hPa | 0 mm | - | - | - |
| 1777468817 | 15° C | 6% | 1028.5 hPa | 0 mm | - | - | - |
| 1777468218 | 16.11° C | 5% | 1028.5 hPa | 0 mm | - | - | - |
| 1777459229 | 14.44° C | 7% | 1028.5 hPa | 0 mm | - | - | - |
| 1777456547 | 15° C | 18% | 1028.5 hPa | 0 mm | - | - | - |
| 1777452316 | 13.89° C | 26% | 1028.5 hPa | 0 mm | - | - | - |
| 1777451127 | 13.89° C | 28% | 1028.5 hPa | 0 mm | - | - | - |
| 1777449028 | 12.78° C | 34% | 1028.5 hPa | 0 mm | - | - | - |
| 1777443948 | 5.56° C | 42% | 1027.5 hPa | 0 mm | - | - | - |
| 1777442727 | 4.44° C | 41% | 1026.8 hPa | 0 mm | - | - | - |
| 1777429517 | 1.67° C | 44% | 1026.5 hPa | 0 mm | - | - | - |
| 1777426241 | 2.22° C | 39% | 1026.5 hPa | 0 mm | - | - | - |
| 1777425049 | 2.22° C | 39% | 1026.5 hPa | 0 mm | - | - | - |
| 1777417554 | 5.56° C | 30% | 1025.4 hPa | 0 mm | - | - | - |
| 1777411828 | 7.78° C | 19% | 1025.4 hPa | 0 mm | - | - | - |
| 1777407640 | 8.33° C | 19% | 1025.4 hPa | 0 mm | - | - | - |
| 1777400738 | 11.67° C | 11% | 1024.4 hPa | 0 mm | - | - | - |
* Rain latest hour (hover to see other rain measurements)
** Current wind speed in m/s (hover to see current wind gust speed)